Borup, Minnesota
Current Conditions -  °F | °C
As of 7:04 PM on Friday 19 Dec 2014 (Local Time) from KFAR Reporting Station
Haze Haze  
Wind Chill: 23°   Ceiling: 1300
Heat Index: 32°   Visibility: 5mi
Dew Point: 28°   Wind: 12mph
Humidity: 85%   Direction: 160°SSE
Pressure: 30.03"   Gusts: NA
Location:  47.18°N, 96.51°W
Report Text: KFAR 200104Z 16010KT 5SM BR SCT008 OVC013 00/M02 A3003 RMK AO2 T00001022
Loading
Personal Weather Stations






























Interactive Weather Map New forecast layout! Learn more

10-Day Weather Forecast

Advertisements
Track Severe Weather on mobile